Nearby METAR Reports

 

EBAW - Antwerpen, Belgium
Distance from station: NW 22km
Updated: 2018-10-16 20:50
Clear
Clear
 Wind from SE
Wind: SE 7 km/h
Temperature: 15°C
Dew Point: 9°C
Humidity: 68%
Barometer: 1018 hPa
Summary: Clear
Visibility: greater than 10 km
2018/10/16 18:50 EBAW 161850Z 14004KT CAVOK 15/09 Q1018 NOSIG
EBBR - Brussel, Belgium
Distance from station: SW 24km
Updated: 2018-10-16 20:50
Clear
Clear
 Wind from SSE
Wind: SSE 6 km/h
Temperature: 16°C
Dew Point: 11°C
Humidity: 72%
Barometer: 1018 hPa
Summary: Clear
Visibility: greater than 10 km
2018/10/16 18:50 EBBR 161850Z 16003KT CAVOK 16/11 Q1018 NOSIG
 
EBDT - Schaffen, Belgium
Distance from station: ESE 26km
Updated: 2018-10-16 20:55
Partly cloudy
Partly cloudy
 Wind from SE
Wind: SE 7 km/h
Temperature: 18°C
Dew Point: 11°C
Humidity: 64%
Barometer: 1018 hPa
Clouds: Partly cloudy
Visibility: 10 km
Cloud details: Partly cloudy 5791 m
2018/10/16 18:55 EBDT 161855Z AUTO 14004KT 9999 SCT190/// 18/11 Q1018 BLU
EBBE - Beauvechain, Belgium
Distance from station: S 36km
Updated: 2018-10-16 20:55
Partly cloudy
Partly cloudy
 Wind from varies
Wind: varies 4 km/h
Temperature: 19°C
Dew Point: 9°C
Humidity: 52%
Barometer: 1019 hPa
Clouds: Partly cloudy
Visibility: 10 km
Cloud details: Partly cloudy 6096 m
2018/10/16 18:55 EBBE 161855Z VRB02KT 9999 SCT200 19/09 Q1019 BLU BLU
 
EHWO - Woensdrecht Rnla, Netherlands
Distance from station: NNW 50km
Updated: 2018-10-16 20:55
Clear
Clear
 Wind from SSE
Wind: SSE 4 km/h
Temperature: 12°C
Dew Point: 11°C
Humidity: 94%
Barometer: 1017 hPa
Clouds: Clear
Visibility: 10 km
2018/10/16 18:55 EHWO 161855Z AUTO 15002KT 9999 NCD 12/11 Q1017 BLU
EBBL - Kleine-Brogel, Belgium
Distance from station: ENE 54km
Updated: 2018-10-16 20:55
Partly cloudy
Partly cloudy
 Wind from varies
Wind: varies 2 km/h
Temperature: 16°C
Dew Point: 12°C
Humidity: 77%
Barometer: 1019 hPa
Clouds: Partly cloudy
Visibility: 10 km
Cloud details: Partly cloudy 6706 m
2018/10/16 18:55 EBBL 161855Z VRB01KT 9999 SCT220 16/12 Q1019 BLU BLU
 
EHGR - Gilze-Rijen Rnla, Netherlands
Distance from station: NNE 57km
Updated: 2018-10-16 20:55
Clear
Clear
 Wind from SE
Wind: SE 11 km/h
Temperature: 17°C
Dew Point: 11°C
Humidity: 68%
Barometer: 1018 hPa
Clouds: Clear
Visibility: 10 km
2018/10/16 18:55 EHGR 161855Z AUTO 14006KT 9999 NCD 17/11 Q1018 BLU 13004KT CAVOK
EHEH - Eindhoven Rnlafb, Netherlands
Distance from station: NE 63km
Updated: 2018-10-16 20:55
Mostly cloudy
Mostly cloudy
 Wind from SE
Wind: SE 7 km/h
Temperature: 16°C
Dew Point: 11°C
Humidity: 72%
Barometer: 1018 hPa
Clouds: Mostly cloudy
Visibility: 10 km
Cloud details: Mostly cloudy 10058 m
2018/10/16 18:55 EHEH 161855Z AUTO 14004KT 9999 BKN330 16/11 Q1018 BLU 13003KT CAVOK
 
EBCI - Charleroi, Belgium
Distance from station: SSW 70km
Updated: 2018-10-16 20:50
Clear
Clear
 Wind from SSE
Wind: SSE 7 km/h
Temperature: 18°C
Dew Point: 11°C
Humidity: 64%
Barometer: 1019 hPa
Summary: Clear
Visibility: greater than 10 km
2018/10/16 18:50 EBCI 161850Z 15004KT CAVOK 18/11 Q1019 NOSIG
EBLG - Bierset, Belgium
Distance from station: SE 72km
Updated: 2018-10-16 20:50
Clear
Clear
 Wind from S
Wind: S 9 km/h, Gust: 30 km/h
Temperature: 20°C
Dew Point: 7°C
Humidity: 43%
Barometer: 1019 hPa
Summary: Clear
Visibility: greater than 10 km
2018/10/16 18:50 EBLG 161850Z 17005G16KT CAVOK 20/07 Q1019 NOSIG